Portada
METAR-TAF:

METAR-TAF

Aeropuertos :

Mont-De-Marsan, Francia

latitud: 43-55N, longitud: 000-30W, altitud: 62 m

Observación

El informe se hizo hace 27 minutos, a las 23:00 UTC
Viento calma
Temperatura 7°C
Humedad 87%
Presión 1014 hPa
Visibilidad 10 km o más
sin nubes por debajo de 1500 m y sin presencia de cumulonimbus.

METAR: LFBM 312300Z AUTO 00000KT CAVOK 07/05 Q1014 NOSIG

Hora: 01:27 (23:27 UTC)

Pronóstico

El informe se hizo hace 3 horas y 27 minutos, a las 20:00 UTC
Pronóstico válido del 31 a las 21 UTC al 01 a las 21 UTC
Viento 5 kt del noreste
Visibilidad 10 km o más
sin nubes por debajo de 1500 m y sin presencia de cumulonimbus.
Probabilidad 30% :
Temporalmente
del 01 a las 01 UTC al 01 a las 07 UTC
Visibilidad: 3000 m
neblina
Temporalmente
del 01 a las 13 UTC al 01 a las 17 UTC
Nubes dispersas a una altura de 3000 ft, Cumulus congestus.

TAF: LFBM 312000Z 3121/0121 04005KT CAVOK PROB30 TEMPO 0101/0107 3000 BR TEMPO 0113/0117 SCT030TCU

Observaciones y pronósticos meteorológicos de más de 4000 aeropuertos (mensajes METAR y TAF).

Los puntos amarillos y rojos representan las estaciones disponibles.

Ponga el ratón en el punto deseado para ver el nombre de la estación.

Haga clic para ver las observaciones y los pronósticos meteorológicos.

Para cambiar el mapa : haga clic en los botones verdes con una cruz de color negro para hacer un zoom, en el botón verde con un guión para alejar o en las flechas verdes para mapas adyacentes.


METAR-TAF: